createdAt,value
2022-11-22T00:01:23.472Z,12.86
2022-11-22T00:03:51.964Z,12.85
2022-11-22T00:06:20.428Z,12.84
2022-11-22T00:08:49.125Z,12.84
2022-11-22T00:11:18.853Z,12.85
2022-11-22T00:13:47.195Z,12.85
2022-11-22T00:16:15.918Z,12.86
2022-11-22T00:18:44.690Z,12.83
2022-11-22T00:21:13.010Z,12.85
2022-11-22T00:23:41.360Z,12.85
2022-11-22T00:26:12.133Z,12.84
2022-11-22T00:28:42.312Z,12.84
2022-11-22T00:31:10.701Z,12.85
2022-11-22T00:33:39.455Z,12.85
2022-11-22T00:36:08.600Z,12.84
2022-11-22T00:38:37.059Z,12.85
2022-11-22T00:41:05.402Z,12.86
2022-11-22T00:43:33.869Z,12.86
2022-11-22T00:46:03.836Z,12.88
2022-11-22T00:48:32.640Z,12.87
2022-11-22T00:51:00.966Z,12.88
2022-11-22T00:53:29.376Z,12.89
2022-11-22T00:55:58.047Z,12.88
2022-11-22T00:58:26.645Z,12.90
2022-11-22T01:00:57.003Z,12.91
2022-11-22T01:03:27.325Z,12.90
2022-11-22T01:05:55.762Z,12.92
2022-11-22T01:08:24.486Z,12.91
2022-11-22T01:10:58.280Z,12.92
2022-11-22T01:13:28.070Z,12.91
2022-11-22T01:16:01.772Z,12.93
2022-11-22T01:18:32.171Z,12.92
2022-11-22T01:21:00.857Z,12.91
2022-11-22T01:23:30.703Z,12.91
2022-11-22T01:25:59.416Z,12.93
2022-11-22T01:28:28.668Z,12.95
2022-11-22T01:30:57.091Z,12.98
2022-11-22T01:33:25.766Z,12.98
2022-11-22T01:35:55.957Z,12.99
2022-11-22T01:38:24.680Z,12.99
2022-11-22T01:40:53.243Z,12.98
2022-11-22T01:43:24.333Z,12.98
2022-11-22T01:45:54.387Z,12.99
2022-11-22T01:48:49.341Z,12.99
2022-11-22T01:51:26.831Z,13.00
2022-11-22T01:54:00.280Z,13.00
2022-11-22T01:56:30.784Z,13.00
2022-11-22T01:59:05.095Z,13.00
2022-11-22T02:01:34.337Z,12.99
2022-11-22T02:04:05.091Z,12.98
2022-11-22T02:06:42.631Z,13.01
2022-11-22T02:09:13.737Z,13.01
2022-11-22T02:11:48.374Z,12.99
2022-11-22T02:14:20.719Z,13.01
2022-11-22T02:16:49.825Z,13.01
2022-11-22T02:19:25.358Z,13.03
2022-11-22T02:22:00.962Z,13.03
2022-11-22T02:24:39.648Z,13.02
2022-11-22T02:27:09.720Z,13.03
2022-11-22T02:29:38.643Z,13.03
2022-11-22T02:32:07.084Z,13.01
2022-11-22T02:34:44.544Z,13.03
2022-11-22T02:37:19.196Z,13.03
2022-11-22T02:39:49.887Z,13.03
2022-11-22T02:42:20.086Z,13.05
2022-11-22T02:44:48.959Z,13.04
2022-11-22T02:47:17.370Z,13.05
2022-11-22T02:49:45.798Z,13.05
2022-11-22T02:52:18.663Z,13.06
2022-11-22T02:54:47.407Z,13.06
2022-11-22T02:57:15.854Z,13.07
2022-11-22T02:59:45.771Z,13.10
2022-11-22T03:02:14.432Z,13.10
2022-11-22T03:04:43.239Z,13.11
2022-11-22T03:07:12.022Z,13.11
2022-11-22T03:09:40.404Z,13.12
2022-11-22T03:12:08.893Z,13.12
2022-11-22T03:14:37.289Z,13.12
2022-11-22T03:17:07.145Z,13.11
2022-11-22T03:19:35.481Z,13.10
2022-11-22T03:22:04.028Z,13.10
2022-11-22T03:24:32.521Z,13.09
2022-11-22T03:27:00.839Z,13.09
2022-11-22T03:29:29.587Z,13.10
2022-11-22T03:31:58.479Z,13.11
2022-11-22T03:34:29.087Z,13.12
2022-11-22T03:36:57.463Z,13.11
2022-11-22T03:39:26.103Z,13.13
2022-11-22T03:41:56.257Z,13.13
2022-11-22T03:44:24.687Z,13.14
2022-11-22T03:46:53.125Z,13.14
2022-11-22T03:49:21.603Z,13.15
2022-11-22T03:51:51.256Z,13.16
2022-11-22T03:54:19.687Z,13.15
2022-11-22T03:56:48.022Z,13.16
2022-11-22T03:59:16.384Z,13.17
2022-11-22T04:01:44.887Z,13.17
2022-11-22T04:04:13.663Z,13.17
2022-11-22T04:06:42.021Z,13.17
2022-11-22T04:09:11.996Z,13.18
2022-11-22T04:11:40.388Z,13.18
2022-11-22T04:14:29.786Z,13.17
2022-11-22T04:16:58.383Z,13.14
2022-11-22T04:19:26.998Z,13.14
2022-11-22T04:21:54.710Z,13.15
2022-11-22T04:24:42.213Z,13.14
2022-11-22T04:27:10.820Z,13.12
2022-11-22T04:29:39.163Z,13.12
2022-11-22T04:32:25.184Z,13.11
2022-11-22T04:34:53.509Z,13.08
2022-11-22T04:37:22.267Z,13.09
2022-11-22T04:39:52.103Z,13.09
2022-11-22T04:42:38.034Z,13.09
2022-11-22T04:45:08.986Z,13.07
2022-11-22T04:47:55.020Z,13.06
2022-11-22T04:50:41.128Z,13.06
2022-11-22T04:53:09.904Z,13.03
2022-11-22T04:55:40.093Z,13.05
2022-11-22T04:58:08.595Z,13.03
2022-11-22T05:00:37.477Z,13.04
2022-11-22T05:03:08.461Z,13.05
2022-11-22T05:05:37.954Z,13.05
2022-11-22T05:08:08.109Z,13.03
2022-11-22T05:10:51.360Z,13.01
2022-11-22T05:13:23.492Z,13.00
2022-11-22T05:15:52.237Z,12.99
2022-11-22T05:18:21.164Z,12.97
2022-11-22T05:20:49.631Z,12.97
2022-11-22T05:23:36.529Z,12.98
2022-11-22T05:26:09.084Z,12.95
2022-11-22T05:28:40.151Z,12.96
2022-11-22T05:31:11.050Z,12.96
2022-11-22T05:33:42.219Z,12.95
2022-11-22T05:36:12.182Z,12.95
2022-11-22T05:38:40.994Z,12.93
2022-11-22T05:41:12.081Z,12.94
2022-11-22T05:43:42.285Z,12.93
2022-11-22T05:46:13.063Z,12.91
2022-11-22T05:48:44.036Z,12.91
2022-11-22T05:51:15.866Z,12.91
2022-11-22T05:53:45.560Z,12.89
2022-11-22T05:56:16.498Z,12.88
2022-11-22T05:58:46.992Z,12.87
2022-11-22T06:01:17.607Z,12.84
2022-11-22T06:03:46.641Z,12.83
2022-11-22T06:06:15.744Z,12.80
2022-11-22T06:08:47.799Z,12.78
2022-11-22T06:11:18.935Z,12.77
2022-11-22T06:13:51.809Z,12.74
2022-11-22T06:16:20.258Z,12.74
2022-11-22T06:18:49.374Z,12.74
2022-11-22T06:21:23.280Z,12.73
2022-11-22T06:23:52.523Z,12.70
2022-11-22T06:26:22.489Z,12.70
2022-11-22T06:28:53.221Z,12.71
2022-11-22T06:31:24.283Z,12.69
2022-11-22T06:33:54.801Z,12.69
2022-11-22T06:36:25.725Z,12.69
2022-11-22T06:38:54.904Z,12.69
2022-11-22T06:41:25.199Z,12.69
2022-11-22T06:43:57.627Z,12.70
2022-11-22T06:46:28.387Z,12.68
2022-11-22T06:48:57.179Z,12.67
2022-11-22T06:51:28.523Z,12.67
2022-11-22T06:53:58.462Z,12.67
2022-11-22T06:56:29.957Z,12.65
2022-11-22T06:59:03.786Z,12.66
2022-11-22T07:01:34.837Z,12.64
2022-11-22T07:04:04.156Z,12.65
2022-11-22T07:06:35.503Z,12.64
2022-11-22T07:09:07.065Z,12.61
2022-11-22T07:11:36.296Z,12.59
2022-11-22T07:14:08.892Z,12.58
2022-11-22T07:16:39.259Z,12.55
2022-11-22T07:19:08.469Z,12.54
2022-11-22T07:21:38.246Z,12.52
2022-11-22T07:24:08.617Z,12.51
2022-11-22T07:26:37.578Z,12.50
2022-11-22T07:29:07.542Z,12.49
2022-11-22T07:31:36.169Z,12.47
2022-11-22T07:34:04.553Z,12.46
2022-11-22T07:36:32.941Z,12.45
2022-11-22T07:39:01.390Z,12.44
2022-11-22T07:41:29.857Z,12.43
2022-11-22T07:43:58.534Z,12.43
2022-11-22T07:46:31.316Z,12.43
2022-11-22T07:49:02.587Z,12.43
2022-11-22T07:51:31.121Z,12.43
2022-11-22T07:53:59.662Z,12.44
2022-11-22T07:56:28.090Z,12.44
2022-11-22T07:58:57.346Z,12.44
2022-11-22T08:01:27.283Z,12.46
2022-11-22T08:03:55.792Z,12.45
2022-11-22T08:06:24.184Z,12.46
2022-11-22T08:08:57.053Z,12.46
2022-11-22T08:11:28.842Z,12.46
2022-11-22T08:13:57.213Z,12.48
2022-11-22T08:16:27.294Z,12.49
2022-11-22T08:18:55.686Z,12.50
2022-11-22T08:21:24.148Z,12.51
2022-11-22T08:23:52.519Z,12.52
2022-11-22T08:26:21.242Z,12.52
2022-11-22T08:28:49.598Z,12.53
2022-11-22T08:31:20.449Z,12.55
2022-11-22T08:33:54.006Z,12.56
2022-11-22T08:36:22.841Z,12.57
2022-11-22T08:38:51.434Z,12.57
2022-11-22T08:41:19.999Z,12.60
2022-11-22T08:43:51.260Z,12.64
2022-11-22T08:46:20.200Z,12.65
2022-11-22T08:48:53.318Z,12.68
2022-11-22T08:51:21.702Z,12.67
2022-11-22T08:53:50.101Z,12.67
2022-11-22T08:56:18.462Z,12.68
2022-11-22T08:58:46.974Z,12.69
2022-11-22T09:01:18.723Z,12.70
2022-11-22T09:03:49.407Z,12.69
2022-11-22T09:09:30.469Z,12.69
2022-11-22T09:11:58.173Z,12.69
2022-11-22T09:14:26.618Z,12.70
2022-11-22T09:16:55.603Z,12.71
2022-11-22T09:19:25.522Z,12.72
2022-11-22T09:21:54.156Z,12.75
2022-11-22T09:24:22.878Z,12.76
2022-11-22T09:26:51.418Z,12.78
2022-11-22T09:29:19.863Z,12.79
2022-11-22T09:31:49.390Z,12.82
2022-11-22T09:34:17.938Z,12.85
2022-11-22T09:36:47.821Z,12.86
2022-11-22T09:39:16.181Z,12.87
2022-11-22T09:42:27.024Z,12.88
2022-11-22T09:45:23.317Z,12.89
2022-11-22T09:48:09.446Z,12.91
2022-11-22T09:50:52.953Z,12.93
2022-11-22T09:53:31.159Z,12.95
2022-11-22T09:56:05.180Z,12.98
2022-11-22T09:58:38.784Z,13.01
2022-11-22T10:01:14.254Z,13.04
2022-11-22T10:03:49.430Z,13.05
2022-11-22T10:06:25.854Z,13.08
2022-11-22T10:09:07.721Z,13.09
2022-11-22T10:11:42.215Z,13.11
2022-11-22T10:14:24.207Z,13.10
2022-11-22T10:16:58.534Z,13.12
2022-11-22T10:19:38.977Z,13.14
2022-11-22T10:22:12.863Z,13.18
2022-11-22T10:24:45.408Z,13.19
2022-11-22T10:27:15.859Z,13.21
2022-11-22T10:29:53.842Z,13.22
2022-11-22T10:32:30.085Z,13.23
2022-11-22T10:35:23.920Z,13.23
2022-11-22T10:38:02.772Z,13.26
2022-11-22T10:40:43.638Z,13.27
2022-11-22T10:43:38.499Z,13.27
2022-11-22T10:46:15.328Z,13.28
2022-11-22T10:48:51.817Z,13.30
2022-11-22T10:51:29.952Z,13.31
2022-11-22T10:54:13.931Z,13.31
2022-11-22T10:56:51.113Z,13.32
2022-11-22T10:59:45.160Z,13.32
2022-11-22T11:02:37.751Z,13.33
2022-11-22T11:05:11.182Z,13.32
2022-11-22T11:07:42.693Z,13.34
2022-11-22T11:10:29.186Z,13.36
2022-11-22T11:13:08.354Z,13.38
2022-11-22T11:15:42.532Z,13.41
2022-11-22T11:18:18.728Z,13.43
2022-11-22T11:20:47.946Z,13.45
2022-11-22T11:23:16.757Z,13.47
2022-11-22T11:25:47.706Z,13.50
2022-11-22T11:28:23.563Z,13.52
2022-11-22T11:30:55.605Z,13.54
2022-11-22T11:33:30.326Z,13.58
2022-11-22T11:36:05.474Z,13.60
2022-11-22T11:38:37.710Z,13.64
2022-11-22T11:41:22.953Z,13.65
2022-11-22T11:43:54.386Z,13.68
2022-11-22T11:46:25.387Z,13.68
2022-11-22T11:48:55.377Z,13.70
2022-11-22T11:51:31.365Z,13.70
2022-11-22T11:54:07.381Z,13.72
2022-11-22T11:56:46.697Z,13.74
2022-11-22T11:59:19.647Z,13.75
2022-11-22T12:01:55.364Z,13.77
2022-11-22T12:04:27.774Z,13.78
2022-11-22T12:07:04.113Z,13.79
2022-11-22T12:09:37.060Z,13.81
2022-11-22T12:12:36.469Z,13.80
2022-11-22T12:15:17.071Z,13.82
2022-11-22T12:17:56.136Z,13.82
2022-11-22T12:20:31.523Z,13.81
2022-11-22T12:23:14.028Z,13.84
2022-11-22T12:25:44.200Z,13.85
2022-11-22T12:28:19.524Z,13.88
2022-11-22T12:30:54.623Z,13.91
2022-11-22T12:33:31.156Z,13.95
2022-11-22T12:35:59.735Z,13.97
2022-11-22T12:38:34.251Z,14.02
2022-11-22T12:41:06.969Z,14.07
2022-11-22T12:43:40.351Z,14.09
2022-11-22T12:46:17.723Z,14.13
2022-11-22T12:48:50.515Z,14.17
2022-11-22T12:51:27.854Z,14.20
2022-11-22T12:54:02.607Z,14.22
2022-11-22T12:56:37.946Z,14.25
2022-11-22T12:59:21.089Z,14.26
2022-11-22T13:02:02.128Z,14.27
2022-11-22T13:04:42.467Z,14.28
2022-11-22T13:07:20.198Z,14.29
2022-11-22T13:09:56.405Z,14.30
2022-11-22T13:12:30.851Z,14.31
2022-11-22T13:15:01.656Z,14.31
2022-11-22T13:17:36.196Z,14.32
2022-11-22T13:20:09.083Z,14.30
2022-11-22T13:22:49.757Z,14.29
2022-11-22T13:25:50.835Z,14.27
2022-11-22T13:28:23.008Z,14.24
2022-11-22T13:31:21.973Z,14.22
2022-11-22T13:34:00.236Z,14.19
2022-11-22T13:36:51.432Z,14.17
2022-11-22T13:39:23.854Z,14.17
2022-11-22T13:42:06.133Z,14.16
2022-11-22T13:45:07.785Z,14.14
2022-11-22T13:47:44.543Z,14.14
2022-11-22T13:51:01.484Z,14.13
2022-11-22T13:53:33.451Z,14.14
2022-11-22T13:57:00.645Z,14.12
2022-11-22T13:59:29.472Z,14.12
2022-11-22T14:02:22.883Z,14.12
2022-11-22T14:04:56.339Z,14.12
2022-11-22T14:07:39.436Z,14.14
2022-11-22T14:10:29.283Z,14.14
2022-11-22T14:13:28.231Z,14.14
2022-11-22T14:16:08.647Z,14.13
2022-11-22T14:19:00.445Z,14.14
2022-11-22T14:21:51.770Z,14.12
2022-11-22T14:24:38.866Z,14.12
2022-11-22T14:27:24.947Z,14.11
2022-11-22T14:30:18.144Z,14.10
2022-11-22T14:32:55.624Z,14.11
2022-11-22T14:35:30.143Z,14.10
2022-11-22T14:38:06.683Z,14.12
2022-11-22T14:40:41.442Z,14.11
2022-11-22T14:43:33.493Z,14.11
2022-11-22T14:46:30.412Z,14.11
2022-11-22T14:49:05.023Z,14.09
2022-11-22T14:51:34.003Z,14.10
2022-11-22T14:54:18.317Z,14.10
2022-11-22T14:56:48.341Z,14.11
2022-11-22T14:59:41.246Z,14.11
2022-11-22T15:02:54.511Z,14.10
2022-11-22T15:09:11.863Z,14.08
2022-11-22T15:09:19.647Z,14.08
2022-11-22T15:11:53.669Z,14.07
2022-11-22T15:57:29.458Z,13.93
2022-11-22T15:59:59.315Z,13.91
2022-11-22T16:02:30.390Z,13.92
2022-11-22T16:06:07.807Z,13.92
2022-11-22T16:07:54.494Z,13.91
2022-11-22T16:10:25.708Z,13.91
2022-11-22T16:12:55.623Z,13.90
2022-11-22T16:15:36.118Z,13.89
2022-11-22T16:18:14.922Z,13.88
2022-11-22T16:20:43.818Z,13.86
2022-11-22T16:23:26.489Z,13.86
2022-11-22T16:26:00.003Z,13.85
2022-11-22T16:28:33.319Z,13.86
2022-11-22T16:31:06.775Z,13.85
2022-11-22T16:33:35.584Z,13.84
2022-11-22T16:36:06.989Z,13.83
2022-11-22T16:38:35.381Z,13.84
2022-11-22T16:41:04.884Z,13.83
2022-11-22T16:43:36.710Z,13.84
2022-11-22T16:46:05.634Z,13.84
2022-11-22T16:48:34.151Z,13.83
2022-11-22T16:51:07.983Z,13.85
2022-11-22T16:53:41.945Z,13.84
2022-11-22T16:56:19.558Z,13.85
2022-11-22T16:58:50.793Z,13.83
2022-11-22T17:01:22.513Z,13.84
2022-11-22T17:03:54.723Z,13.83
2022-11-22T17:06:25.497Z,13.83
2022-11-22T17:08:55.961Z,13.81
2022-11-22T17:11:27.222Z,13.81
2022-11-22T17:13:57.536Z,13.83
2022-11-22T17:16:25.950Z,13.81
2022-11-22T17:18:54.565Z,13.80
2022-11-22T17:21:31.296Z,13.80
2022-11-22T17:24:05.784Z,13.79
2022-11-22T17:26:35.039Z,13.81
2022-11-22T17:29:06.646Z,13.81
2022-11-22T17:31:37.474Z,13.82
2022-11-22T17:34:06.145Z,13.82
2022-11-22T17:36:36.962Z,13.82
2022-11-22T17:39:09.451Z,13.83
2022-11-22T17:41:38.122Z,13.83
2022-11-22T17:44:08.716Z,13.83
2022-11-22T17:46:39.825Z,13.84
2022-11-22T17:49:14.126Z,13.84
2022-11-22T17:51:44.243Z,13.82
2022-11-22T17:54:12.607Z,13.83
2022-11-22T17:56:41.066Z,13.85
2022-11-22T17:59:11.131Z,13.84
2022-11-22T18:01:39.592Z,13.85
2022-11-22T18:04:08.204Z,13.85
2022-11-22T18:06:36.577Z,13.82
2022-11-22T18:09:05.549Z,13.84
2022-11-22T18:11:34.092Z,13.86
2022-11-22T18:14:03.006Z,13.87
2022-11-22T18:16:32.933Z,13.87
2022-11-22T18:19:01.500Z,13.88
2022-11-22T18:21:32.394Z,13.87
2022-11-22T18:24:02.444Z,13.86
2022-11-22T18:26:39.237Z,13.87
2022-11-22T18:29:41.639Z,13.87
2022-11-22T18:31:59.167Z,13.87
2022-11-22T18:34:28.534Z,13.89
2022-11-22T18:39:46.554Z,13.89
2022-11-22T18:42:17.048Z,13.90
2022-11-22T18:44:46.000Z,13.90
2022-11-22T18:47:15.905Z,13.90
2022-11-22T18:49:44.401Z,13.89
2022-11-22T18:52:15.009Z,13.87
2022-11-22T18:54:46.669Z,13.88
2022-11-22T18:57:15.231Z,13.87
2022-11-22T18:59:43.618Z,13.89
2022-11-22T19:02:12.103Z,13.89
2022-11-22T19:04:41.952Z,13.91
2022-11-22T19:07:10.755Z,13.88
2022-11-22T19:09:39.142Z,13.88
2022-11-22T19:12:07.570Z,13.86
2022-11-22T19:14:36.020Z,13.87
2022-11-22T19:17:04.749Z,13.86
2022-11-22T19:19:33.202Z,13.87
2022-11-22T19:22:04.466Z,13.89
2022-11-22T19:24:33.371Z,13.87
2022-11-22T19:27:02.431Z,13.87
2022-11-22T19:29:31.147Z,13.88
2022-11-22T19:31:59.941Z,13.89
2022-11-22T19:34:31.310Z,13.90
2022-11-22T19:37:00.244Z,13.90
2022-11-22T19:39:30.436Z,13.90
2022-11-22T19:41:59.466Z,13.90
2022-11-22T19:44:27.865Z,13.91
2022-11-22T19:46:56.364Z,13.91
2022-11-22T19:49:25.483Z,13.91
2022-11-22T19:51:53.922Z,13.91
2022-11-22T19:54:22.519Z,13.89
2022-11-22T19:56:52.355Z,13.90
2022-11-22T19:59:21.158Z,13.90
2022-11-22T20:01:49.518Z,13.90
2022-11-22T20:04:18.566Z,13.90
2022-11-22T20:06:50.106Z,13.89
2022-11-22T20:09:19.017Z,13.89
2022-11-22T20:11:47.492Z,13.89
2022-11-22T20:14:17.322Z,13.90
2022-11-22T20:16:45.802Z,13.91
2022-11-22T20:19:15.331Z,13.90
2022-11-22T20:21:43.815Z,13.90
2022-11-22T20:24:13.369Z,13.91
2022-11-22T20:26:42.612Z,13.90
2022-11-22T20:29:15.190Z,13.91
2022-11-22T20:31:45.298Z,13.91
2022-11-22T20:34:15.049Z,13.91
2022-11-22T20:36:43.706Z,13.90
2022-11-22T20:39:12.186Z,13.89
2022-11-22T20:41:41.274Z,13.87
2022-11-22T20:44:14.091Z,13.89
2022-11-22T20:46:45.211Z,13.88
2022-11-22T20:49:13.890Z,13.89
2022-11-22T20:51:43.076Z,13.89
2022-11-22T20:54:12.017Z,13.89
2022-11-22T20:56:40.438Z,13.90
2022-11-22T20:59:09.389Z,13.89
2022-11-22T21:01:38.350Z,13.88
2022-11-22T21:04:08.457Z,13.89
2022-11-22T21:06:36.925Z,13.89
2022-11-22T21:09:05.660Z,13.89
2022-11-22T21:11:35.053Z,13.87
2022-11-22T21:14:03.528Z,13.89
2022-11-22T21:16:32.414Z,13.87
2022-11-22T21:19:04.911Z,13.90
2022-11-22T21:21:37.129Z,13.91
2022-11-22T21:24:08.167Z,13.91
2022-11-22T21:26:36.652Z,13.92
2022-11-22T21:29:15.932Z,13.92
2022-11-22T21:31:45.127Z,13.92
2022-11-22T21:34:13.858Z,13.92
2022-11-22T21:36:43.682Z,13.92
2022-11-22T21:39:12.020Z,13.94
2022-11-22T21:41:41.345Z,13.95
2022-11-22T21:44:10.616Z,13.96
2022-11-22T21:46:39.544Z,13.96
2022-11-22T21:49:08.513Z,13.96
2022-11-22T21:51:36.938Z,13.96
2022-11-22T21:54:09.739Z,13.95
2022-11-22T21:56:38.366Z,13.96
2022-11-22T21:59:07.020Z,13.96
2022-11-22T22:01:35.678Z,13.98
2022-11-22T22:04:04.461Z,13.98
2022-11-22T22:06:33.164Z,13.98
2022-11-22T22:09:02.085Z,13.98
2022-11-22T22:11:31.849Z,13.98
2022-11-22T22:14:00.694Z,13.97
2022-11-22T22:16:29.103Z,13.99
2022-11-22T22:18:57.804Z,13.99
2022-11-22T22:21:26.202Z,14.00
2022-11-22T22:23:56.930Z,14.00
2022-11-22T22:26:25.390Z,14.00
2022-11-22T22:28:55.826Z,14.01
2022-11-22T22:31:27.020Z,14.02
2022-11-22T22:33:57.996Z,14.01
2022-11-22T22:36:28.689Z,14.01
2022-11-22T22:38:57.175Z,14.01
2022-11-22T22:41:25.762Z,14.03
2022-11-22T22:43:55.605Z,14.03
2022-11-22T22:46:25.472Z,14.02
2022-11-22T22:48:56.171Z,14.02
2022-11-22T22:51:32.325Z,14.03
2022-11-22T22:54:02.026Z,14.02
2022-11-22T22:56:32.203Z,14.01
2022-11-22T22:59:02.318Z,14.02
2022-11-22T23:01:32.576Z,14.03
2022-11-22T23:04:02.497Z,14.01
2022-11-22T23:06:32.619Z,14.02
2022-11-22T23:09:02.340Z,14.00
2022-11-22T23:12:04.912Z,14.02
2022-11-22T23:14:35.236Z,14.00
2022-11-22T23:17:03.899Z,13.98
2022-11-22T23:19:32.651Z,13.98
2022-11-22T23:22:01.289Z,13.99
2022-11-22T23:24:32.794Z,14.00
2022-11-22T23:27:01.409Z,14.00
2022-11-22T23:29:30.250Z,14.00
2022-11-22T23:32:00.557Z,14.00
2022-11-22T23:34:28.932Z,13.99
2022-11-22T23:36:57.455Z,13.99
2022-11-22T23:39:25.770Z,14.00
2022-11-22T23:41:54.103Z,13.98
2022-11-22T23:44:22.656Z,13.97
2022-11-22T23:46:51.201Z,13.98
2022-11-22T23:49:21.076Z,13.98
2022-11-22T23:51:50.280Z,13.99
2022-11-22T23:54:18.653Z,13.99
2022-11-22T23:56:47.051Z,14.00
2022-11-22T23:59:15.463Z,14.01
